Time;durP1;ratioP1;P1;durP2;ratioP2;P2;SDS_P1;SDS_P2;PMS_P1;PMS_P2;Temp;Humidity;BMP_temperature;BMP_pressure;BME280_temperature;BME280_humidity;BME280_pressure;Samples;Min_cycle;Max_cycle;Signal;HPM_P1;HPM_P2
2023/10/12 00:04:06;;;;;;;10.17;4.63;;;15.70;99.90;;;;;;4919744;29;20282;-30
2023/10/12 00:06:37;;;;;;;9.93;5.27;;;15.70;99.90;;;;;;4915433;29;20179;-30
2023/10/12 00:09:16;;;;;;;8.80;4.40;;;15.70;99.90;;;;;;4905956;29;20183;-30
2023/10/12 00:11:48;;;;;;;8.90;4.73;;;15.70;99.90;;;;;;4919624;29;20213;-30
2023/10/12 00:14:14;;;;;;;11.43;4.60;;;15.80;99.90;;;;;;4915285;29;20186;-30
2023/10/12 00:16:42;;;;;;;12.63;4.57;;;15.70;99.90;;;;;;4934840;29;20189;-30
2023/10/12 00:19:11;;;;;;;9.57;4.33;;;15.80;99.90;;;;;;4936681;29;20229;-30
2023/10/12 00:21:37;;;;;;;9.43;4.60;;;15.80;99.90;;;;;;4918939;29;20214;-30
2023/10/12 00:24:06;;;;;;;14.43;4.80;;;15.70;99.90;;;;;;4932125;29;20202;-30
2023/10/12 00:26:32;;;;;;;9.23;4.43;;;15.70;99.90;;;;;;4918613;29;20186;-30
2023/10/12 00:28:58;;;;;;;8.00;4.53;;;15.70;99.90;;;;;;4935060;29;20206;-30
2023/10/12 00:31:25;;;;;;;8.10;4.70;;;15.80;99.90;;;;;;4919404;29;20182;-30
2023/10/12 00:33:50;;;;;;;7.87;4.53;;;15.80;99.90;;;;;;4928469;29;20213;-30
2023/10/12 00:36:21;;;;;;;10.80;4.40;;;15.80;99.90;;;;;;4900547;29;20218;-30
2023/10/12 00:38:49;;;;;;;8.90;4.77;;;15.80;99.90;;;;;;4916432;29;20305;-30
2023/10/12 00:41:17;;;;;;;7.93;4.77;;;15.80;99.90;;;;;;4899265;29;20182;-30
2023/10/12 00:44:12;;;;;;;8.20;4.67;;;15.90;99.90;;;;;;4934926;29;20220;-30
2023/10/12 00:47:07;;;;;;;11.17;4.73;;;15.90;99.90;;;;;;4911053;29;20187;-30
2023/10/12 00:49:30;;;;;;;10.50;4.67;;;15.90;99.90;;;;;;4929582;29;20197;-30
2023/10/12 00:52:21;;;;;;;7.40;4.27;;;15.90;99.90;;;;;;4916417;29;20214;-30
2023/10/12 00:54:55;;;;;;;10.03;4.47;;;16.00;99.90;;;;;;4930762;29;20198;-30
2023/10/12 00:57:22;;;;;;;7.60;4.37;;;16.00;99.90;;;;;;4917309;29;20213;-30
2023/10/12 00:59:51;;;;;;;6.90;4.00;;;16.00;99.90;;;;;;4918443;29;20178;-30
2023/10/12 01:02:21;;;;;;;6.40;4.50;;;16.00;99.90;;;;;;4917803;29;20277;-29
2023/10/12 01:04:53;;;;;;;8.40;4.40;;;16.00;99.90;;;;;;4918607;29;20213;-30
2023/10/12 01:07:25;;;;;;;8.37;4.63;;;16.00;99.90;;;;;;4933968;29;20190;-30
2023/10/12 01:09:55;;;;;;;10.43;5.00;;;15.90;99.90;;;;;;4915709;29;20294;-30
2023/10/12 01:12:26;;;;;;;8.50;4.33;;;15.90;99.90;;;;;;4900979;29;20301;-30
2023/10/12 01:14:54;;;;;;;8.97;4.53;;;15.90;99.90;;;;;;4917243;29;20194;-30
2023/10/12 01:17:24;;;;;;;10.70;5.07;;;15.90;99.90;;;;;;4918409;29;20256;-30
2023/10/12 01:19:51;;;;;;;6.30;4.13;;;15.90;99.90;;;;;;4933192;29;20189;-30
2023/10/12 01:22:25;;;;;;;9.47;4.57;;;15.90;99.90;;;;;;4904269;29;20339;-30
2023/10/12 01:27:21;;;;;;;8.13;4.50;;;15.90;99.90;;;;;;4926945;29;20193;-30
2023/10/12 01:29:51;;;;;;;10.90;5.07;;;15.80;99.90;;;;;;4913674;29;20202;-30
2023/10/12 01:34:51;;;;;;;6.27;4.30;;;15.70;99.90;;;;;;4929530;29;20197;-30
2023/10/12 01:37:26;;;;;;;11.27;5.10;;;15.60;99.90;;;;;;4952524;29;20209;-30
2023/10/12 01:39:57;;;;;;;7.43;4.17;;;15.60;99.90;;;;;;4933573;29;20189;-30
2023/10/12 01:47:55;;;;;;;8.33;4.57;;;15.40;99.90;;;;;;4929391;29;20186;-29
2023/10/12 01:50:25;;;;;;;8.73;4.90;;;15.30;99.90;;;;;;4910238;29;20342;-30
2023/10/12 01:52:58;;;;;;;8.77;4.67;;;15.30;99.90;;;;;;4927725;29;20202;-30
2023/10/12 01:55:31;;;;;;;11.00;5.20;;;15.20;99.90;;;;;;4901811;29;20197;-30
2023/10/12 01:57:58;;;;;;;8.07;4.07;;;15.20;99.90;;;;;;4945430;29;20296;-30
2023/10/12 02:00:38;;;;;;;9.47;4.77;;;15.10;99.90;;;;;;4919074;29;20367;-30
2023/10/12 02:03:18;;;;;;;9.10;5.10;;;15.10;99.90;;;;;;4946996;29;20296;-30
2023/10/12 02:05:51;;;;;;;7.50;4.80;;;15.00;99.90;;;;;;4928491;29;20185;-30
2023/10/12 02:08:23;;;;;;;8.93;4.77;;;14.90;99.90;;;;;;4931143;29;20192;-30
2023/10/12 02:10:56;;;;;;;9.70;5.07;;;14.90;99.90;;;;;;4915720;29;20190;-30
2023/10/12 02:13:23;;;;;;;7.03;4.50;;;14.90;99.90;;;;;;4914145;29;20209;-30
2023/10/12 02:15:50;;;;;;;9.40;5.00;;;14.90;99.90;;;;;;4936158;29;20196;-30
2023/10/12 02:18:19;;;;;;;9.10;5.23;;;14.80;99.90;;;;;;4921462;29;20209;-30
2023/10/12 02:21:06;;;;;;;7.50;4.93;;;14.90;99.90;;;;;;4910817;29;20647;-29
2023/10/12 02:23:54;;;;;;;8.30;4.70;;;14.90;99.90;;;;;;4918418;29;20237;-29
2023/10/12 02:26:33;;;;;;;6.77;5.00;;;14.90;99.90;;;;;;4932131;29;20189;-30
2023/10/12 02:31:38;;;;;;;8.47;5.30;;;14.80;99.90;;;;;;4919301;29;20201;-30
2023/10/12 02:34:17;;;;;;;6.67;4.47;;;14.80;99.90;;;;;;4944249;29;20178;-30
2023/10/12 02:37:36;;;;;;;6.93;4.60;;;14.80;99.90;;;;;;4915607;29;20237;-29
2023/10/12 02:39:42;;;;;;;11.57;4.87;;;14.70;99.90;;;;;;4920677;29;20288;-30
2023/10/12 02:47:30;;;;;;;6.50;4.67;;;14.70;99.90;;;;;;4924948;29;20199;-30
2023/10/12 02:50:01;;;;;;;10.37;4.60;;;14.60;99.90;;;;;;4923943;29;20194;-30
2023/10/12 02:52:30;;;;;;;9.10;4.67;;;14.60;99.90;;;;;;4910680;29;20214;-30
2023/10/12 02:54:57;;;;;;;11.23;5.07;;;14.60;99.90;;;;;;4914234;29;20286;-30
2023/10/12 02:57:30;;;;;;;9.77;5.07;;;14.60;99.90;;;;;;4925123;29;20290;-30
2023/10/12 02:59:57;;;;;;;6.80;4.67;;;14.60;99.90;;;;;;4918036;29;20198;-30
2023/10/12 03:02:32;;;;;;;9.17;5.20;;;14.50;99.90;;;;;;4924728;29;20349;-29
2023/10/12 03:05:09;;;;;;;12.53;5.00;;;14.50;99.90;;;;;;4911233;29;20189;-30
2023/10/12 03:07:37;;;;;;;9.13;5.00;;;14.50;99.90;;;;;;4914313;29;20184;-29
2023/10/12 03:10:07;;;;;;;7.60;4.80;;;14.40;99.90;;;;;;4930296;29;20185;-29
2023/10/12 03:12:41;;;;;;;12.20;5.13;;;14.30;99.90;;;;;;4940940;29;20313;-29
2023/10/12 03:15:14;;;;;;;8.97;5.13;;;14.30;99.90;;;;;;4948612;29;20192;-29
2023/10/12 03:17:54;;;;;;;7.70;4.80;;;14.30;99.90;;;;;;4934701;29;20217;-30
2023/10/12 03:20:23;;;;;;;15.57;5.37;;;14.30;99.90;;;;;;4923726;29;20189;-29
2023/10/12 03:22:53;;;;;;;8.73;4.50;;;14.30;99.90;;;;;;4925193;29;20209;-30
2023/10/12 03:28:13;;;;;;;6.70;4.90;;;14.30;99.90;;;;;;4927149;29;20256;-30
2023/10/12 03:30:53;;;;;;;10.07;4.87;;;14.40;99.90;;;;;;4919378;29;20211;-30
2023/10/12 03:33:19;;;;;;;10.20;4.93;;;14.40;99.90;;;;;;4927145;29;20213;-30
2023/10/12 03:35:57;;;;;;;10.60;4.90;;;14.40;99.90;;;;;;4914472;29;20188;-29
2023/10/12 03:38:32;;;;;;;9.53;4.60;;;14.40;99.90;;;;;;4926710;29;20209;-29
2023/10/12 03:43:46;;;;;;;8.00;4.83;;;14.40;99.90;;;;;;4927748;29;20196;-30
2023/10/12 03:46:26;;;;;;;8.83;5.00;;;14.50;99.90;;;;;;4935588;29;20249;-30
2023/10/12 03:51:46;;;;;;;8.00;5.03;;;14.50;99.90;;;;;;4926311;29;20209;-29
2023/10/12 03:54:26;;;;;;;8.80;5.07;;;14.40;99.90;;;;;;4932915;29;20253;-29
2023/10/12 03:56:53;;;;;;;8.13;4.97;;;14.50;99.90;;;;;;4920508;29;20755;-30
2023/10/12 03:59:43;;;;;;;7.43;5.10;;;14.40;99.90;;;;;;4912097;29;20212;-29
2023/10/12 04:02:14;;;;;;;11.27;5.30;;;14.30;99.90;;;;;;4945392;29;20256;-30
2023/10/12 04:04:59;;;;;;;7.60;5.00;;;14.20;99.90;;;;;;4909967;29;20237;-30
2023/10/12 04:07:39;;;;;;;10.77;5.30;;;14.20;99.90;;;;;;4920680;29;20289;-30
2023/10/12 04:10:14;;;;;;;5.93;4.77;;;14.20;99.90;;;;;;4924575;29;20284;-29
2023/10/12 04:13:07;;;;;;;7.57;4.23;;;14.20;99.90;;;;;;4911278;29;20255;-30
2023/10/12 04:18:32;;;;;;;8.77;4.77;;;14.30;99.90;;;;;;4912730;29;20304;-30
2023/10/12 04:21:03;;;;;;;10.17;5.40;;;14.30;99.90;;;;;;4910734;29;20284;-30
2023/10/12 04:28:50;;;;;;;7.60;4.43;;;14.40;99.90;;;;;;4936714;29;20189;-30
2023/10/12 04:36:45;;;;;;;9.87;5.37;;;14.50;99.90;;;;;;4938373;29;20288;-29
2023/10/12 04:39:27;;;;;;;8.43;4.60;;;14.50;99.90;;;;;;4937790;29;20220;-30
2023/10/12 04:47:05;;;;;;;10.73;5.80;;;14.50;99.90;;;;;;4936373;29;20189;-30
2023/10/12 04:57:31;;;;;;;7.97;5.37;;;14.20;99.90;;;;;;4935289;29;20209;-29
2023/10/12 05:02:43;;;;;;;7.63;5.07;;;14.20;99.90;;;;;;4938556;29;20272;-31
2023/10/12 05:07:57;;;;;;;7.50;5.47;;;14.20;99.90;;;;;;4940202;29;20201;-30
2023/10/12 05:13:10;;;;;;;7.53;5.10;;;14.20;99.90;;;;;;4938029;29;20204;-30
2023/10/12 05:15:40;;;;;;;11.73;5.83;;;14.10;99.90;;;;;;4914340;29;20189;-30
2023/10/12 05:18:10;;;;;;;10.20;5.87;;;14.10;99.90;;;;;;4938030;29;20212;-30
2023/10/12 05:20:40;;;;;;;9.23;5.47;;;14.10;99.90;;;;;;4955457;29;20192;-30
2023/10/12 05:23:07;;;;;;;8.40;5.47;;;14.00;99.90;;;;;;4913950;29;20252;-30
2023/10/12 05:25:47;;;;;;;11.63;5.80;;;14.00;99.90;;;;;;4907732;29;20193;-30
2023/10/12 05:28:18;;;;;;;9.53;5.30;;;13.90;99.90;;;;;;4920020;29;20207;-30
2023/10/12 05:30:55;;;;;;;9.47;5.83;;;13.90;99.90;;;;;;4914828;29;20189;-30
2023/10/12 05:36:10;;;;;;;9.23;5.77;;;13.90;99.90;;;;;;4935062;29;20190;-31
2023/10/12 05:38:38;;;;;;;11.00;5.97;;;13.90;99.90;;;;;;4906202;29;20210;-31
2023/10/12 05:41:08;;;;;;;7.73;5.00;;;13.90;99.90;;;;;;4906116;29;20210;-31
2023/10/12 05:43:40;;;;;;;12.03;5.57;;;13.90;99.90;;;;;;4921349;29;20198;-30
2023/10/12 05:46:18;;;;;;;9.37;5.70;;;13.90;99.90;;;;;;4921860;29;20205;-31
2023/10/12 05:48:51;;;;;;;10.03;5.53;;;13.90;99.90;;;;;;4920978;29;20186;-30
2023/10/12 05:51:27;;;;;;;8.80;5.00;;;13.80;99.90;;;;;;4920453;29;20253;-30
2023/10/12 05:54:06;;;;;;;9.97;5.57;;;13.80;99.90;;;;;;4923348;29;20182;-31
2023/10/12 05:56:36;;;;;;;8.87;5.50;;;13.80;99.90;;;;;;4928813;29;20216;-31
2023/10/12 05:59:09;;;;;;;9.30;5.20;;;13.80;99.90;;;;;;4935871;29;20209;-30
2023/10/12 06:04:08;;;;;;;10.20;5.60;;;13.80;99.90;;;;;;4945182;28;20284;-32
2023/10/12 06:06:35;;;;;;;10.43;5.53;;;13.80;99.90;;;;;;4936847;29;20185;-31
2023/10/12 06:09:20;;;;;;;9.27;5.73;;;13.80;99.90;;;;;;4937025;28;20188;-30
2023/10/12 06:11:48;;;;;;;8.77;5.73;;;13.90;99.90;;;;;;4936630;29;20233;-31
2023/10/12 06:14:15;;;;;;;13.60;5.63;;;14.00;99.90;;;;;;4936361;28;20185;-30
2023/10/12 06:16:42;;;;;;;8.53;5.27;;;14.10;99.90;;;;;;4936769;29;20184;-32
2023/10/12 06:19:18;;;;;;;9.80;5.47;;;14.20;99.90;;;;;;4953442;28;20212;-31
2023/10/12 06:21:50;;;;;;;11.13;5.50;;;14.30;99.90;;;;;;4936807;29;20177;-28
2023/10/12 06:24:33;;;;;;;8.67;5.07;;;14.40;99.90;;;;;;4936737;28;20245;-31
2023/10/12 06:29:51;;;;;;;11.80;5.33;;;14.60;99.90;;;;;;4937043;29;20201;-30
2023/10/12 06:32:28;;;;;;;10.47;5.63;;;14.70;99.90;;;;;;4936248;28;20197;-32
2023/10/12 06:35:58;;;;;;;11.70;5.30;;;14.80;99.90;;;;;;4936689;29;20200;-32
2023/10/12 06:45:54;;;;;;;18.27;6.70;;;15.00;99.90;;;;;;4960344;28;20200;-31
2023/10/12 06:55:57;;;;;;;20.77;6.27;;;15.30;99.90;;;;;;4954501;28;20188;-31
2023/10/12 06:58:36;;;;;;;10.33;5.17;;;15.30;99.90;;;;;;4947081;28;20287;-31
2023/10/12 07:03:50;;;;;;;9.67;6.20;;;15.40;99.90;;;;;;4950641;28;20300;-31
2023/10/12 07:06:16;;;;;;;13.73;6.23;;;15.30;99.90;;;;;;4961453;28;20181;-32
2023/10/12 07:08:51;;;;;;;11.83;5.80;;;15.30;99.90;;;;;;4939240;28;20179;-32
2023/10/12 07:11:20;;;;;;;12.60;5.47;;;15.30;99.90;;;;;;4951487;28;20184;-32
2023/10/12 07:13:46;;;;;;;12.43;5.97;;;15.30;99.90;;;;;;4950237;28;20207;-32
2023/10/12 07:16:20;;;;;;;9.57;5.20;;;15.40;99.90;;;;;;4946707;28;20187;-31
2023/10/12 07:18:49;;;;;;;8.00;5.40;;;15.50;99.90;;;;;;4970988;28;20200;-31
2023/10/12 07:21:21;;;;;;;10.53;5.17;;;15.60;99.90;;;;;;4971870;28;20189;-31
2023/10/12 07:23:53;;;;;;;9.03;5.43;;;15.60;99.90;;;;;;4951029;28;20212;-32
2023/10/12 07:26:20;;;;;;;8.27;5.30;;;15.80;99.90;;;;;;4945986;28;20273;-31
2023/10/12 07:28:49;;;;;;;7.20;5.20;;;15.80;99.90;;;;;;4939106;28;20188;-31
2023/10/12 07:39:21;;;;;;;10.37;5.33;;;16.30;99.90;;;;;;4967701;28;20234;-31
2023/10/12 07:41:54;;;;;;;9.37;5.40;;;16.40;99.90;;;;;;4954821;28;20187;-32
2023/10/12 07:44:24;;;;;;;8.57;4.83;;;16.60;99.90;;;;;;4955032;28;20192;-32
2023/10/12 07:46:50;;;;;;;7.40;4.88;;;16.80;99.90;;;;;;4954775;28;20181;-32
2023/10/12 07:57:15;;;;;;;11.23;5.13;;;17.10;99.90;;;;;;4953242;28;20236;-31
2023/10/12 08:10:48;;;;;;;10.50;4.82;;;17.50;99.90;;;;;;4936131;28;20182;-29
2023/10/12 08:21:31;;;;;;;7.28;4.90;;;17.60;99.90;;;;;;4958661;28;20181;-29
2023/10/12 08:26:47;;;;;;;7.43;4.72;;;17.60;99.90;;;;;;4946807;29;20181;-29
2023/10/12 08:31:44;;;;;;;8.10;5.03;;;17.60;99.90;;;;;;4969730;28;20181;-29
2023/10/12 08:34:41;;;;;;;6.53;4.95;;;17.60;99.90;;;;;;4937577;28;20185;-30
2023/10/12 08:39:37;;;;;;;13.63;7.40;;;17.60;99.90;;;;;;4943405;28;20220;-30
2023/10/12 08:44:53;;;;;;;14.63;6.32;;;17.60;99.90;;;;;;4957707;28;20188;-30
2023/10/12 08:50:01;;;;;;;11.75;5.80;;;17.60;99.90;;;;;;4974781;28;20180;-30
2023/10/12 08:52:31;;;;;;;12.15;6.75;;;17.60;99.90;;;;;;4957572;28;20208;-30
2023/10/12 08:55:11;;;;;;;12.77;6.20;;;17.70;99.90;;;;;;4956424;28;20184;-30
2023/10/12 08:58:15;;;;;;;10.48;5.65;;;17.70;99.90;;;;;;4957316;28;20251;-30
2023/10/12 09:03:29;;;;;;;10.75;5.28;;;17.70;99.90;;;;;;4941650;28;20228;-30
2023/10/12 09:05:55;;;;;;;7.82;4.57;;;17.80;99.90;;;;;;4961373;28;20186;-30
2023/10/12 09:11:02;;;;;;;10.57;4.75;;;18.00;99.90;;;;;;4956720;28;20180;-30
2023/10/12 09:13:33;;;;;;;8.52;4.85;;;18.10;99.90;;;;;;4941123;28;20254;-30
2023/10/12 09:16:02;;;;;;;9.98;4.95;;;18.10;99.90;;;;;;4941128;28;20200;-30
2023/10/12 09:18:35;;;;;;;8.63;5.25;;;18.20;99.90;;;;;;4939746;28;20247;-30
2023/10/12 09:23:31;;;;;;;8.68;4.80;;;18.40;99.90;;;;;;4955880;28;20239;-29
2023/10/12 09:26:30;;;;;;;7.22;5.10;;;18.50;99.90;;;;;;4940658;28;20181;-29
2023/10/12 09:31:14;;;;;;;9.30;5.45;;;18.60;99.90;;;;;;4973789;28;20192;-29
2023/10/12 09:36:28;;;;;;;8.07;4.72;;;18.70;99.90;;;;;;4964513;28;20188;-30
2023/10/12 09:38:57;;;;;;;10.23;5.05;;;18.80;99.90;;;;;;4935789;28;20227;-30
2023/10/12 09:41:33;;;;;;;9.13;5.57;;;18.90;99.90;;;;;;4956088;28;20185;-30
2023/10/12 09:44:06;;;;;;;7.60;5.15;;;18.90;99.90;;;;;;4956329;28;20210;-30
2023/10/12 09:46:34;;;;;;;11.15;6.03;;;18.90;99.90;;;;;;4972786;28;20189;-30
2023/10/12 09:49:06;;;;;;;9.05;5.15;;;19.00;99.90;;;;;;4938223;28;20197;-30
2023/10/12 09:51:37;;;;;;;7.82;5.30;;;19.10;99.90;;;;;;4955894;28;20213;-30
2023/10/12 09:54:15;;;;;;;9.60;5.60;;;19.20;99.90;;;;;;4955854;28;20190;-30
2023/10/12 09:56:57;;;;;;;8.13;5.22;;;19.30;99.90;;;;;;4949337;28;20188;-30
2023/10/12 09:59:23;;;;;;;12.77;5.65;;;19.40;99.90;;;;;;4943486;28;20212;-30
2023/10/12 10:01:50;;;;;;;9.23;5.53;;;19.50;99.90;;;;;;4971627;28;20267;-30
2023/10/12 10:09:46;;;;;;;9.02;5.20;;;19.70;99.90;;;;;;4973343;28;20184;-32
2023/10/12 10:12:15;;;;;;;11.75;5.63;;;19.70;99.90;;;;;;4940134;28;20209;-30
2023/10/12 10:14:44;;;;;;;11.32;5.80;;;19.80;99.90;;;;;;4955541;28;20229;-30
2023/10/12 10:17:16;;;;;;;8.45;4.90;;;19.90;99.90;;;;;;4955740;28;20191;-30
2023/10/12 10:19:44;;;;;;;8.07;4.70;;;19.90;99.90;;;;;;4973294;28;20186;-30
2023/10/12 10:22:14;;;;;;;8.82;5.35;;;19.90;99.90;;;;;;4972814;28;20235;-30
2023/10/12 10:24:55;;;;;;;6.78;5.10;;;20.00;99.90;;;;;;4955635;28;20181;-30
2023/10/12 10:27:35;;;;;;;10.82;5.15;;;20.00;99.90;;;;;;4933125;28;20177;-30
2023/10/12 10:30:36;;;;;;;9.98;5.30;;;20.10;99.90;;;;;;4973145;28;20188;-30
2023/10/12 10:33:20;;;;;;;7.35;4.80;;;20.20;99.90;;;;;;4934240;29;20197;-30
2023/10/12 10:36:10;;;;;;;10.07;4.93;;;20.20;99.90;;;;;;4940479;28;20267;-30
2023/10/12 10:41:18;;;;;;;8.10;4.93;;;20.40;99.90;;;;;;4963370;28;20182;-30
2023/10/12 10:43:45;;;;;;;8.90;4.85;;;20.60;99.90;;;;;;4942673;28;20197;-30
2023/10/12 10:46:13;;;;;;;11.27;5.20;;;20.70;99.90;;;;;;4941960;28;20185;-30
2023/10/12 10:48:49;;;;;;;9.90;4.60;;;20.80;99.90;;;;;;4964073;28;20271;-30
2023/10/12 10:51:24;;;;;;;9.23;4.80;;;21.00;99.90;;;;;;4948404;28;20263;-29
2023/10/12 10:53:52;;;;;;;8.35;5.03;;;21.20;99.90;;;;;;4971103;28;20262;-29
2023/10/12 10:56:32;;;;;;;6.22;4.53;;;21.50;99.90;;;;;;4971726;28;20184;-29
2023/10/12 10:58:59;;;;;;;10.40;5.20;;;21.90;99.90;;;;;;4939162;28;20200;-30
2023/10/12 11:01:26;;;;;;;9.43;5.18;;;22.20;99.90;;;;;;4954106;28;20185;-29
2023/10/12 11:03:52;;;;;;;8.13;5.10;;;22.40;99.90;;;;;;4954302;28;20217;-29
2023/10/12 11:06:22;;;;;;;7.00;4.85;;;22.50;99.90;;;;;;4956488;28;20182;-29
2023/10/12 11:08:53;;;;;;;7.30;4.65;;;22.60;99.90;;;;;;4952054;28;20177;-29
2023/10/12 11:11:26;;;;;;;8.38;4.57;;;22.50;99.90;;;;;;4954946;28;20206;-28
2023/10/12 11:13:52;;;;;;;10.40;4.90;;;22.60;99.90;;;;;;4955000;28;20204;-30
2023/10/12 11:16:37;;;;;;;8.98;4.88;;;22.70;99.90;;;;;;4954761;28;20180;-30
2023/10/12 11:19:08;;;;;;;8.02;4.50;;;22.70;99.90;;;;;;4954245;28;20208;-29
2023/10/12 11:21:34;;;;;;;9.77;4.90;;;22.70;99.90;;;;;;4961995;28;20650;-29
2023/10/12 11:24:01;;;;;;;8.93;4.40;;;22.80;99.90;;;;;;4954644;28;20674;-29
2023/10/12 11:26:39;;;;;;;8.10;5.25;;;22.90;99.90;;;;;;4958884;28;20185;-29
2023/10/12 11:29:11;;;;;;;8.63;4.93;;;23.00;99.90;;;;;;4940690;29;20231;-29
2023/10/12 11:31:37;;;;;;;7.45;4.68;;;23.00;99.90;;;;;;4976586;28;20271;-29
2023/10/12 11:34:07;;;;;;;10.15;4.80;;;23.00;99.90;;;;;;4940610;29;20209;-29
2023/10/12 11:36:35;;;;;;;7.50;4.43;;;23.00;99.90;;;;;;4957047;28;20199;-30
2023/10/12 11:39:16;;;;;;;10.32;4.85;;;22.90;99.90;;;;;;4976498;28;20255;-31
2023/10/12 11:42:03;;;;;;;9.13;4.88;;;22.80;99.90;;;;;;4978194;28;20192;-30
2023/10/12 11:44:33;;;;;;;10.68;4.90;;;22.70;99.90;;;;;;4956452;28;20184;-30
2023/10/12 11:47:01;;;;;;;8.02;4.57;;;22.70;99.90;;;;;;4978038;28;20210;-30
2023/10/12 11:49:30;;;;;;;10.82;5.00;;;22.80;99.90;;;;;;4931631;28;20189;-30
2023/10/12 11:51:57;;;;;;;10.10;4.50;;;22.80;99.90;;;;;;4972955;28;20207;-30
2023/10/12 11:54:32;;;;;;;6.65;4.50;;;22.80;99.90;;;;;;4944326;28;20211;-31
2023/10/12 11:56:58;;;;;;;9.23;4.20;;;22.80;99.90;;;;;;4948670;28;20308;-30
2023/10/12 11:59:31;;;;;;;7.85;4.05;;;22.90;99.90;;;;;;4972220;28;20215;-30
2023/10/12 12:04:33;;;;;;;8.68;4.40;;;23.00;99.90;;;;;;4954691;28;20230;-30
2023/10/12 12:06:59;;;;;;;8.35;4.05;;;23.00;99.90;;;;;;4929940;29;20185;-30
2023/10/12 12:09:27;;;;;;;7.30;3.70;;;23.10;99.90;;;;;;4949000;28;20192;-29
2023/10/12 12:11:55;;;;;;;10.82;5.18;;;23.20;99.90;;;;;;4940514;28;20219;-31
2023/10/12 12:14:20;;;;;;;8.52;4.25;;;23.30;99.90;;;;;;4948355;28;20316;-30
2023/10/12 12:16:47;;;;;;;8.02;4.22;;;23.30;99.90;;;;;;4938210;29;20269;-30
2023/10/12 12:19:19;;;;;;;6.75;3.83;;;23.30;99.90;;;;;;4944150;28;20688;-30
2023/10/12 12:21:45;;;;;;;7.30;4.30;;;23.40;99.90;;;;;;4941939;28;20181;-30
2023/10/12 12:26:49;;;;;;;7.35;4.10;;;23.50;99.90;;;;;;4956644;29;20235;-30
2023/10/12 12:29:16;;;;;;;9.05;4.45;;;23.50;99.90;;;;;;4945750;28;20248;-30
2023/10/12 12:31:42;;;;;;;5.65;4.00;;;23.50;99.90;;;;;;4951006;28;20191;-29
2023/10/12 12:34:18;;;;;;;6.55;4.30;;;23.50;99.90;;;;;;4940091;29;20201;-30
2023/10/12 12:36:44;;;;;;;7.72;4.07;;;23.40;99.90;;;;;;4958047;28;20277;-30
2023/10/12 12:39:11;;;;;;;7.65;3.90;;;23.40;99.90;;;;;;4941344;28;20204;-30
2023/10/12 12:41:36;;;;;;;8.07;4.10;;;23.40;99.90;;;;;;4957376;28;20233;-31
2023/10/12 12:44:02;;;;;;;7.65;4.05;;;23.40;99.90;;;;;;4956804;28;20236;-30
2023/10/12 12:46:29;;;;;;;8.88;4.55;;;23.40;99.90;;;;;;4940371;28;20197;-31
2023/10/12 12:48:55;;;;;;;7.30;4.18;;;23.40;99.90;;;;;;4940883;28;20188;-30
2023/10/12 12:51:21;;;;;;;6.60;3.83;;;23.30;99.90;;;;;;4933259;28;20180;-30
2023/10/12 12:53:50;;;;;;;7.63;4.18;;;23.30;99.90;;;;;;4957215;28;20223;-30
2023/10/12 12:56:22;;;;;;;6.90;4.15;;;23.20;99.90;;;;;;4941435;28;20189;-30
2023/10/12 12:58:51;;;;;;;8.10;4.13;;;23.20;99.90;;;;;;4934927;28;20239;-31
2023/10/12 13:01:18;;;;;;;9.15;3.97;;;23.20;99.90;;;;;;4957102;28;20187;-29
2023/10/12 13:03:47;;;;;;;6.85;3.80;;;23.20;99.90;;;;;;4928751;28;20222;-30
2023/10/12 13:06:16;;;;;;;5.03;4.05;;;23.10;99.90;;;;;;4936144;29;20186;-29
2023/10/12 13:08:43;;;;;;;10.82;4.28;;;23.10;99.90;;;;;;4945434;28;20192;-29
2023/10/12 13:11:09;;;;;;;6.93;3.92;;;23.00;99.90;;;;;;4950406;29;20185;-30
2023/10/12 13:13:39;;;;;;;9.02;4.22;;;23.00;99.90;;;;;;4964990;28;20212;-31
2023/10/12 13:16:05;;;;;;;6.22;4.10;;;23.00;99.90;;;;;;4973826;28;20184;-30
2023/10/12 13:18:46;;;;;;;5.00;3.30;;;22.90;99.90;;;;;;4942037;28;20204;-29
2023/10/12 13:21:16;;;;;;;8.73;3.60;;;22.90;99.90;;;;;;4956869;28;20177;-30
2023/10/12 13:23:43;;;;;;;11.60;4.43;;;22.80;99.90;;;;;;4940295;28;20219;-30
2023/10/12 13:26:17;;;;;;;6.65;3.88;;;22.80;99.90;;;;;;4940159;28;20184;-30
2023/10/12 13:28:44;;;;;;;7.47;4.00;;;22.80;99.90;;;;;;4940212;28;20224;-30
2023/10/12 13:31:11;;;;;;;13.52;4.05;;;22.80;99.90;;;;;;4942490;28;20192;-30
2023/10/12 13:33:38;;;;;;;7.03;3.92;;;22.80;99.90;;;;;;4937375;28;20205;-31
2023/10/12 13:36:08;;;;;;;5.45;3.97;;;22.80;99.90;;;;;;4937800;28;20326;-30
2023/10/12 13:38:39;;;;;;;6.78;3.85;;;22.80;99.90;;;;;;4955410;28;20313;-30
2023/10/12 13:41:05;;;;;;;6.85;4.28;;;22.90;99.90;;;;;;4920865;29;20189;-30
2023/10/12 13:43:31;;;;;;;9.02;3.70;;;22.90;99.90;;;;;;4921324;28;20193;-30
2023/10/12 13:46:07;;;;;;;8.65;3.88;;;22.90;99.90;;;;;;4921192;29;20186;-30
2023/10/12 13:48:37;;;;;;;11.18;4.47;;;22.90;99.90;;;;;;4953569;28;20193;-30
2023/10/12 13:51:19;;;;;;;6.82;3.90;;;22.90;99.90;;;;;;4936702;29;20243;-31
2023/10/12 13:53:46;;;;;;;7.88;4.10;;;23.00;99.90;;;;;;4919071;29;20603;-30
2023/10/12 13:56:13;;;;;;;6.95;3.72;;;23.00;99.90;;;;;;4937441;28;20196;-31
2023/10/12 13:58:49;;;;;;;6.72;3.97;;;23.10;99.90;;;;;;4924455;28;20244;-30
2023/10/12 14:01:15;;;;;;;7.95;3.65;;;23.10;99.90;;;;;;4945864;28;20176;-30
2023/10/12 14:03:45;;;;;;;6.43;4.00;;;23.20;99.90;;;;;;4945347;28;20216;-30
2023/10/12 14:06:13;;;;;;;7.82;3.75;;;23.20;99.90;;;;;;4928892;28;20194;-29
2023/10/12 14:08:43;;;;;;;7.63;3.95;;;23.20;99.90;;;;;;4927551;28;20190;-31
2023/10/12 14:11:19;;;;;;;8.40;3.88;;;23.30;99.90;;;;;;4941752;28;20181;-29
2023/10/12 14:13:46;;;;;;;8.07;3.90;;;23.30;99.90;;;;;;4943843;28;20201;-30
2023/10/12 14:16:14;;;;;;;9.15;3.80;;;23.30;99.90;;;;;;4937198;28;20188;-30
2023/10/12 14:18:41;;;;;;;8.18;3.83;;;23.40;99.90;;;;;;4936871;28;20263;-30
2023/10/12 14:21:13;;;;;;;8.18;3.88;;;23.40;99.90;;;;;;4949684;28;20181;-30
2023/10/12 14:23:48;;;;;;;6.95;3.90;;;23.40;99.90;;;;;;4967725;28;20208;-31
2023/10/12 14:26:18;;;;;;;8.98;3.72;;;23.30;99.90;;;;;;4970569;28;20223;-31
2023/10/12 14:28:47;;;;;;;9.27;4.45;;;23.40;99.90;;;;;;4945449;28;20189;-31
2023/10/12 14:31:14;;;;;;;7.03;3.58;;;23.40;99.90;;;;;;4960909;28;20177;-31
2023/10/12 14:33:43;;;;;;;8.27;3.67;;;23.40;99.90;;;;;;4963432;28;20263;-30
2023/10/12 14:36:09;;;;;;;6.78;3.80;;;23.40;99.90;;;;;;4944900;28;20190;-30
2023/10/12 14:38:37;;;;;;;9.35;4.10;;;23.40;99.90;;;;;;4927633;28;20197;-32
2023/10/12 14:41:05;;;;;;;6.05;3.40;;;23.30;99.90;;;;;;4939613;28;20185;-30
2023/10/12 14:43:32;;;;;;;9.80;3.90;;;23.30;99.90;;;;;;4943468;28;20209;-31
2023/10/12 14:46:03;;;;;;;6.13;3.90;;;23.30;99.90;;;;;;4962719;28;20173;-30
2023/10/12 14:48:29;;;;;;;7.70;3.88;;;23.30;99.90;;;;;;4958960;28;20248;-30
2023/10/12 14:51:48;;;;;;;7.07;3.75;;;23.30;99.90;;;;;;4955213;28;20248;-30
2023/10/12 14:53:56;;;;;;;6.25;3.50;;;23.30;99.90;;;;;;4949809;28;20244;-30
2023/10/12 14:56:30;;;;;;;7.32;3.22;;;23.30;99.90;;;;;;4943151;28;20195;-31
2023/10/12 14:58:56;;;;;;;7.55;3.78;;;23.30;99.90;;;;;;4928249;28;20224;-30
2023/10/12 15:01:27;;;;;;;4.43;3.45;;;23.30;99.90;;;;;;4943120;28;20216;-31
2023/10/12 15:03:54;;;;;;;6.07;3.35;;;23.40;99.90;;;;;;4927205;28;20254;-30
2023/10/12 15:06:20;;;;;;;6.97;3.63;;;23.40;99.90;;;;;;4942509;28;20198;-29
2023/10/12 15:08:48;;;;;;;8.15;3.75;;;23.50;99.90;;;;;;4941828;28;20181;-30
2023/10/12 15:11:15;;;;;;;9.48;3.70;;;23.60;99.90;;;;;;4919224;29;20247;-31
2023/10/12 15:13:45;;;;;;;7.18;3.70;;;23.70;99.90;;;;;;4934876;28;20203;-33
2023/10/12 15:16:12;;;;;;;6.40;3.45;;;23.90;99.90;;;;;;4918925;29;20248;-31
2023/10/12 15:18:42;;;;;;;7.45;3.58;;;24.00;99.90;;;;;;4919867;28;20303;-30
2023/10/12 15:21:12;;;;;;;6.80;3.33;;;24.00;99.90;;;;;;4936514;29;20177;-30
2023/10/12 15:23:42;;;;;;;9.25;3.83;;;24.10;99.90;;;;;;4942529;28;20212;-31
2023/10/12 15:26:12;;;;;;;4.85;3.05;;;24.20;99.90;;;;;;4926465;28;20227;-30
2023/10/12 15:28:47;;;;;;;7.40;3.75;;;24.20;99.90;;;;;;4946857;28;20181;-30
2023/10/12 15:31:16;;;;;;;8.77;3.35;;;24.20;99.90;;;;;;4950575;28;20293;-30
2023/10/12 15:33:42;;;;;;;7.95;4.03;;;24.20;99.90;;;;;;4926102;28;20223;-30
2023/10/12 15:36:13;;;;;;;5.57;3.42;;;24.20;99.90;;;;;;4927970;28;20185;-29
2023/10/12 15:38:40;;;;;;;5.72;3.45;;;24.20;99.90;;;;;;4965814;28;20211;-30
2023/10/12 15:41:06;;;;;;;9.50;3.58;;;24.20;99.90;;;;;;4926897;28;20184;-31
2023/10/12 15:43:32;;;;;;;7.95;3.20;;;24.10;99.90;;;;;;4939843;29;20209;-30
2023/10/12 15:45:58;;;;;;;6.60;3.25;;;24.10;99.90;;;;;;4939122;29;20273;-30
2023/10/12 15:48:29;;;;;;;6.53;2.85;;;24.10;99.90;;;;;;4951180;28;20184;-30
2023/10/12 15:50:55;;;;;;;8.70;3.50;;;24.00;99.90;;;;;;4939288;28;20223;-30
2023/10/12 15:53:23;;;;;;;6.95;3.10;;;24.00;99.90;;;;;;4958393;28;20233;-30